Time,TemperatureF,DewpointF,PressureIn,WindDirection,WindDirectionDegrees,WindSpeedMPH,WindSpeedGustMPH,Humidity,HourlyPrecipIn,Conditions,Clouds,dailyrainin,SoftwareType,DateUTC
2013-12-13 00:01:00,16.9,10.0,30.09,NW,315,0.0,0.0,74,0.00,,,0.00,VWS V14.01,2013-12-13 06:01:00,
2013-12-13 00:06:00,16.9,10.0,30.12,NW,315,0.0,0.0,74,0.00,,,0.00,VWS V14.01,2013-12-13 06:06:00,
2013-12-13 00:11:00,16.9,10.0,30.12,NW,315,0.0,0.0,74,0.00,,,0.00,VWS V14.01,2013-12-13 06:11:00,
2013-12-13 00:16:00,16.9,10.0,30.12,NW,315,0.0,0.0,74,0.00,,,0.00,VWS V14.01,2013-12-13 06:16:00,
2013-12-13 00:21:00,16.7,9.9,30.12,NW,315,0.0,0.0,74,0.00,,,0.00,VWS V14.01,2013-12-13 06:21:00,
2013-12-13 00:26:00,16.7,9.9,30.12,NW,315,0.0,0.0,74,0.00,,,0.00,VWS V14.01,2013-12-13 06:26:00,
2013-12-13 00:31:00,16.7,10.2,30.12,NW,315,0.0,0.0,75,0.00,,,0.00,VWS V14.01,2013-12-13 06:31:00,
2013-12-13 00:36:00,16.7,10.2,30.12,NW,315,0.0,0.0,75,0.00,,,0.00,VWS V14.01,2013-12-13 06:36:00,
2013-12-13 00:41:00,16.7,10.2,30.12,NW,315,0.0,0.0,75,0.00,,,0.00,VWS V14.01,2013-12-13 06:41:00,
2013-12-13 00:46:00,16.7,10.2,30.12,NW,315,0.0,0.0,75,0.00,,,0.00,VWS V14.01,2013-12-13 06:46:00,
2013-12-13 00:51:00,16.7,10.5,30.12,NW,315,0.0,0.0,76,0.00,,,0.00,VWS V14.01,2013-12-13 06:51:00,
2013-12-13 00:56:00,16.7,10.5,30.12,NW,315,0.0,0.0,76,0.00,,,0.00,VWS V14.01,2013-12-13 06:56:00,
2013-12-13 01:01:00,16.7,10.5,30.12,NW,315,0.0,0.0,76,0.00,,,0.00,VWS V14.01,2013-12-13 07:01:00,
2013-12-13 01:06:00,16.7,10.5,30.12,NW,315,0.0,0.0,76,0.00,,,0.00,VWS V14.01,2013-12-13 07:06:00,
2013-12-13 01:11:00,16.7,10.5,30.12,NW,315,0.0,0.0,76,0.00,,,0.00,VWS V14.01,2013-12-13 07:11:00,
2013-12-13 01:16:00,16.7,10.5,30.12,NW,315,0.0,0.0,76,0.00,,,0.00,VWS V14.01,2013-12-13 07:16:00,
2013-12-13 01:22:00,16.7,10.2,30.12,NW,315,0.0,0.0,75,0.00,,,0.00,VWS V14.01,2013-12-13 07:22:00,
2013-12-13 01:27:00,16.7,10.2,30.12,NW,315,0.0,0.0,75,0.00,,,0.00,VWS V14.01,2013-12-13 07:27:00,
2013-12-13 01:32:00,16.7,10.2,30.09,NW,315,0.0,0.0,75,0.00,,,0.00,VWS V14.01,2013-12-13 07:32:00,
2013-12-13 01:37:00,16.7,10.2,30.09,NW,315,0.0,0.0,75,0.00,,,0.00,VWS V14.01,2013-12-13 07:37:00,
2013-12-13 01:42:00,16.9,10.3,30.09,NW,315,0.0,0.0,75,0.00,,,0.00,VWS V14.01,2013-12-13 07:42:00,
2013-12-13 01:47:00,16.9,10.3,30.12,ENE,68,2.7,2.7,75,0.00,,,0.00,VWS V14.01,2013-12-13 07:47:00,
2013-12-13 01:52:00,16.9,10.3,30.12,ENE,68,0.0,1.1,75,0.00,,,0.00,VWS V14.01,2013-12-13 07:52:00,
2013-12-13 01:57:00,16.9,10.3,30.12,ENE,68,0.0,1.3,75,0.00,,,0.00,VWS V14.01,2013-12-13 07:57:00,
2013-12-13 02:02:00,16.9,10.0,30.15,ENE,68,0.0,0.0,74,0.00,,,0.00,VWS V14.01,2013-12-13 08:02:00,
2013-12-13 02:07:00,16.9,10.0,30.15,NNW,338,0.0,2.2,74,0.00,,,0.00,VWS V14.01,2013-12-13 08:07:00,
2013-12-13 02:12:00,16.9,10.0,30.15,NE,45,0.0,2.0,74,0.00,,,0.00,VWS V14.01,2013-12-13 08:12:00,
2013-12-13 02:17:00,16.7,9.9,30.15,ENE,68,0.0,1.3,74,0.00,,,0.00,VWS V14.01,2013-12-13 08:17:00,
2013-12-13 02:22:00,16.7,9.6,30.15,ENE,68,2.7,2.9,73,0.00,,,0.00,VWS V14.01,2013-12-13 08:22:00,
2013-12-13 02:27:00,16.5,9.4,30.15,NE,45,2.2,3.6,73,0.00,,,0.00,VWS V14.01,2013-12-13 08:27:00,
2013-12-13 02:32:00,16.5,9.4,30.12,NE,45,3.1,3.1,73,0.00,,,0.00,VWS V14.01,2013-12-13 08:32:00,
2013-12-13 02:37:00,16.2,8.7,30.12,NW,315,0.9,3.4,72,0.00,,,0.00,VWS V14.01,2013-12-13 08:37:00,
2013-12-13 02:42:00,16.0,8.6,30.12,NE,45,2.9,4.3,72,0.00,,,0.00,VWS V14.01,2013-12-13 08:42:00,
2013-12-13 02:47:00,15.8,8.4,30.12,NE,45,2.5,3.4,72,0.00,,,0.00,VWS V14.01,2013-12-13 08:47:00,
2013-12-13 02:53:00,15.6,7.9,30.12,ENE,68,1.3,3.4,71,0.00,,,0.00,VWS V14.01,2013-12-13 08:53:00,
2013-12-13 02:58:00,15.4,7.7,30.12,ENE,68,0.0,2.0,71,0.00,,,0.00,VWS V14.01,2013-12-13 08:58:00,
2013-12-13 03:03:00,15.3,7.2,30.15,ESE,112,0.0,4.9,70,0.00,,,0.00,VWS V14.01,2013-12-13 09:03:00,
2013-12-13 03:08:00,15.1,7.1,30.15,NE,45,2.7,3.1,70,0.00,,,0.00,VWS V14.01,2013-12-13 09:08:00,
2013-12-13 03:13:00,15.1,7.1,30.15,East,90,2.0,2.0,70,0.00,,,0.00,VWS V14.01,2013-12-13 09:13:00,
2013-12-13 03:18:00,15.1,7.1,30.12,NE,45,0.0,3.4,70,0.00,,,0.00,VWS V14.01,2013-12-13 09:18:00,
2013-12-13 03:23:00,15.1,7.1,30.12,ENE,68,2.5,3.6,70,0.00,,,0.00,VWS V14.01,2013-12-13 09:23:00,
2013-12-13 03:28:00,14.9,6.6,30.12,WSW,248,3.1,6.0,69,0.00,,,0.00,VWS V14.01,2013-12-13 09:28:00,
2013-12-13 03:33:00,14.9,6.6,30.12,NNE,22,2.5,4.3,69,0.00,,,0.00,VWS V14.01,2013-12-13 09:33:00,
2013-12-13 03:43:00,14.7,6.4,30.12,NE,45,3.8,3.8,69,0.00,,,0.00,VWS V14.01,2013-12-13 09:43:00,
2013-12-13 03:48:00,14.5,5.9,30.09,ENE,68,3.1,4.5,68,0.00,,,0.00,VWS V14.01,2013-12-13 09:48:00,
2013-12-13 03:53:00,14.4,5.4,30.09,NE,45,2.5,5.4,67,0.00,,,0.00,VWS V14.01,2013-12-13 09:53:00,
2013-12-13 03:58:00,14.2,5.2,30.09,NE,45,3.6,4.9,67,0.00,,,0.00,VWS V14.01,2013-12-13 09:58:00,
2013-12-13 04:03:00,14.2,4.9,30.09,ENE,68,3.1,3.1,66,0.00,,,0.00,VWS V14.01,2013-12-13 10:03:00,
2013-12-13 04:08:00,14.0,5.1,30.09,NNE,22,3.6,5.6,67,0.00,,,0.00,VWS V14.01,2013-12-13 10:08:00,
2013-12-13 04:13:00,13.8,4.9,30.09,NNE,22,2.7,3.1,67,0.00,,,0.00,VWS V14.01,2013-12-13 10:13:00,
2013-12-13 04:18:00,13.8,4.9,30.12,ENE,68,2.0,3.6,67,0.00,,,0.00,VWS V14.01,2013-12-13 10:18:00,
2013-12-13 04:23:00,13.8,4.9,30.12,ENE,68,1.3,4.0,67,0.00,,,0.00,VWS V14.01,2013-12-13 10:23:00,
2013-12-13 04:28:00,13.8,4.9,30.12,ENE,68,2.7,4.9,67,0.00,,,0.00,VWS V14.01,2013-12-13 10:28:00,
2013-12-13 04:33:00,13.8,4.9,30.09,NNE,22,2.7,3.6,67,0.00,,,0.00,VWS V14.01,2013-12-13 10:33:00,
2013-12-13 04:38:00,13.8,4.9,30.09,ENE,68,3.4,4.3,67,0.00,,,0.00,VWS V14.01,2013-12-13 10:38:00,
2013-12-13 04:44:00,13.6,4.7,30.09,East,90,2.7,4.3,67,0.00,,,0.00,VWS V14.01,2013-12-13 10:44:00,
2013-12-13 04:49:00,13.6,4.7,30.12,ENE,68,2.0,3.8,67,0.00,,,0.00,VWS V14.01,2013-12-13 10:49:00,
2013-12-13 04:54:00,13.6,4.7,30.12,ENE,68,2.5,4.7,67,0.00,,,0.00,VWS V14.01,2013-12-13 10:54:00,
2013-12-13 04:59:00,13.6,4.7,30.12,NE,45,1.6,4.7,67,0.00,,,0.00,VWS V14.01,2013-12-13 10:59:00,
2013-12-13 05:04:00,13.6,4.7,30.12,ENE,68,2.9,4.7,67,0.00,,,0.00,VWS V14.01,2013-12-13 11:04:00,
2013-12-13 05:09:00,13.5,4.6,30.12,ENE,68,1.6,4.9,67,0.00,,,0.00,VWS V14.01,2013-12-13 11:09:00,
2013-12-13 05:14:00,13.5,4.6,30.12,NE,45,4.7,6.3,67,0.00,,,0.00,VWS V14.01,2013-12-13 11:14:00,
2013-12-13 05:19:00,13.5,4.6,30.12,East,90,2.7,4.3,67,0.00,,,0.00,VWS V14.01,2013-12-13 11:19:00,
2013-12-13 05:24:00,13.5,4.6,30.12,ESE,112,3.4,4.0,67,0.00,,,0.00,VWS V14.01,2013-12-13 11:24:00,
2013-12-13 05:29:00,13.3,4.4,30.12,NNE,22,0.9,3.6,67,0.00,,,0.00,VWS V14.01,2013-12-13 11:29:00,
2013-12-13 05:34:00,13.3,4.4,30.15,East,90,1.1,2.2,67,0.00,,,0.00,VWS V14.01,2013-12-13 11:34:00,
2013-12-13 05:39:00,13.1,4.2,30.15,ENE,68,2.9,4.0,67,0.00,,,0.00,VWS V14.01,2013-12-13 11:39:00,
2013-12-13 05:44:00,12.9,4.0,30.15,ENE,68,3.1,5.8,67,0.00,,,0.00,VWS V14.01,2013-12-13 11:44:00,
2013-12-13 05:49:00,12.9,4.0,30.12,ENE,68,3.8,6.3,67,0.00,,,0.00,VWS V14.01,2013-12-13 11:49:00,
2013-12-13 05:54:00,12.7,3.9,30.12,NNE,22,2.9,4.7,67,0.00,,,0.00,VWS V14.01,2013-12-13 11:54:00,
2013-12-13 05:59:00,12.7,3.9,30.12,ENE,68,3.1,4.9,67,0.00,,,0.00,VWS V14.01,2013-12-13 11:59:00,
2013-12-13 06:04:00,12.7,3.9,30.15,ENE,68,3.8,5.4,67,0.00,,,0.00,VWS V14.01,2013-12-13 12:04:00,
2013-12-13 06:09:00,12.7,3.9,30.15,NNE,22,2.9,6.7,67,0.00,,,0.00,VWS V14.01,2013-12-13 12:09:00,
2013-12-13 06:15:00,12.6,3.7,30.15,ENE,68,2.7,4.7,67,0.00,,,0.00,VWS V14.01,2013-12-13 12:15:00,
2013-12-13 06:20:00,12.6,3.7,30.15,NE,45,2.7,4.9,67,0.00,,,0.00,VWS V14.01,2013-12-13 12:20:00,
2013-12-13 06:24:00,12.6,3.7,30.15,ENE,68,2.2,6.0,67,0.00,,,0.00,VWS V14.01,2013-12-13 12:24:00,
2013-12-13 06:29:00,12.6,3.7,30.15,NE,45,3.8,3.8,67,0.00,,,0.00,VWS V14.01,2013-12-13 12:29:00,
2013-12-13 06:34:00,12.4,3.5,30.15,ESE,112,2.9,5.8,67,0.00,,,0.00,VWS V14.01,2013-12-13 12:34:00,
2013-12-13 06:39:00,12.2,3.3,30.15,NE,45,4.0,4.7,67,0.00,,,0.00,VWS V14.01,2013-12-13 12:39:00,
2013-12-13 06:44:00,12.2,3.3,30.15,ENE,68,2.2,2.5,67,0.00,,,0.00,VWS V14.01,2013-12-13 12:44:00,
2013-12-13 06:49:00,12.0,3.2,30.15,East,90,1.6,3.1,67,0.00,,,0.00,VWS V14.01,2013-12-13 12:49:00,
2013-12-13 06:55:00,11.8,3.0,30.15,ENE,68,1.3,3.1,67,0.00,,,0.00,VWS V14.01,2013-12-13 12:55:00,
2013-12-13 07:00:00,11.8,3.0,30.15,NE,45,1.3,2.9,67,0.00,,,0.00,VWS V14.01,2013-12-13 13:00:00,
2013-12-13 07:05:00,11.7,2.8,30.15,East,90,3.1,3.8,67,0.00,,,0.00,VWS V14.01,2013-12-13 13:05:00,
2013-12-13 07:10:00,11.5,2.7,30.15,ENE,68,1.1,3.8,67,0.00,,,0.00,VWS V14.01,2013-12-13 13:10:00,
2013-12-13 07:15:00,11.3,2.5,30.15,ENE,68,1.1,3.6,67,0.00,,,0.00,VWS V14.01,2013-12-13 13:15:00,
2013-12-13 07:20:00,11.3,2.5,30.15,ENE,68,3.4,3.4,67,0.00,,,0.00,VWS V14.01,2013-12-13 13:20:00,
2013-12-13 07:25:00,11.1,2.3,30.15,East,90,2.0,2.0,67,0.00,,,0.00,VWS V14.01,2013-12-13 13:25:00,
2013-12-13 07:30:00,11.1,2.3,30.15,NE,45,2.0,2.2,67,0.00,,,0.00,VWS V14.01,2013-12-13 13:30:00,
2013-12-13 07:35:00,11.1,2.3,30.18,ENE,68,0.0,1.6,67,0.00,,,0.00,VWS V14.01,2013-12-13 13:35:00,
2013-12-13 07:40:00,11.3,2.5,30.18,ENE,68,2.9,2.9,67,0.00,,,0.00,VWS V14.01,2013-12-13 13:40:00,
2013-12-13 07:45:00,11.3,2.5,30.18,NE,45,0.0,2.2,67,0.00,,,0.00,VWS V14.01,2013-12-13 13:45:00,
2013-12-13 07:50:00,11.5,2.7,30.18,NNE,22,2.0,4.0,67,0.00,,,0.00,VWS V14.01,2013-12-13 13:50:00,
2013-12-13 07:55:00,11.7,2.8,30.18,ENE,68,0.0,2.7,67,0.00,,,0.00,VWS V14.01,2013-12-13 13:55:00,
2013-12-13 08:00:00,11.7,2.8,30.18,ENE,68,1.1,3.4,67,0.00,,,0.00,VWS V14.01,2013-12-13 14:00:00,
2013-12-13 08:05:00,11.8,3.0,30.18,NE,45,2.9,4.7,67,0.00,,,0.00,VWS V14.01,2013-12-13 14:05:00,
2013-12-13 08:10:00,12.0,3.2,30.18,ENE,68,2.2,3.6,67,0.00,,,0.00,VWS V14.01,2013-12-13 14:10:00,
2013-12-13 08:16:00,12.0,3.2,30.18,ENE,68,2.0,4.7,67,0.00,,,0.00,VWS V14.01,2013-12-13 14:16:00,
2013-12-13 08:21:00,12.2,3.3,30.18,ENE,68,1.6,2.5,67,0.00,,,0.00,VWS V14.01,2013-12-13 14:21:00,
2013-12-13 08:26:00,12.4,3.5,30.18,NNE,22,2.7,3.8,67,0.00,,,0.00,VWS V14.01,2013-12-13 14:26:00,
2013-12-13 08:31:00,12.6,3.7,30.18,ENE,68,3.1,4.9,67,0.00,,,0.00,VWS V14.01,2013-12-13 14:31:00,
2013-12-13 08:36:00,12.7,3.9,30.18,East,90,2.0,4.0,67,0.00,,,0.00,VWS V14.01,2013-12-13 14:36:00,
2013-12-13 08:41:00,12.7,3.9,30.18,ENE,68,2.5,3.4,67,0.00,,,0.00,VWS V14.01,2013-12-13 14:41:00,
2013-12-13 08:46:00,12.9,4.0,30.18,NNE,22,3.1,4.0,67,0.00,,,0.00,VWS V14.01,2013-12-13 14:46:00,
2013-12-13 08:51:00,12.9,4.0,30.21,NE,45,3.4,3.4,67,0.00,,,0.00,VWS V14.01,2013-12-13 14:51:00,
2013-12-13 08:56:00,13.1,4.2,30.21,NNW,338,3.6,3.6,67,0.00,,,0.00,VWS V14.01,2013-12-13 14:56:00,
2013-12-13 09:01:00,13.3,4.4,30.21,NE,45,3.1,3.1,67,0.00,,,0.00,VWS V14.01,2013-12-13 15:01:00,
2013-12-13 09:06:00,13.3,4.4,30.21,East,90,6.3,6.3,67,0.00,,,0.00,VWS V14.01,2013-12-13 15:06:00,
2013-12-13 09:11:00,13.5,4.6,30.21,ENE,68,3.6,3.6,67,0.00,,,0.00,VWS V14.01,2013-12-13 15:11:00,
2013-12-13 09:16:00,13.6,4.7,30.21,ENE,68,2.9,2.9,67,0.00,,,0.00,VWS V14.01,2013-12-13 15:16:00,
2013-12-13 09:21:00,13.8,4.9,30.21,ENE,68,3.4,4.0,67,0.00,,,0.00,VWS V14.01,2013-12-13 15:21:00,
2013-12-13 09:26:00,13.8,4.9,30.21,NE,45,3.6,3.6,67,0.00,,,0.00,VWS V14.01,2013-12-13 15:26:00,
2013-12-13 09:31:00,14.2,3.6,30.21,ENE,68,3.6,3.6,62,0.00,,,0.00,VWS V14.01,2013-12-13 15:31:00,
2013-12-13 09:36:00,14.4,3.7,30.21,ENE,68,4.0,4.0,62,0.00,,,0.00,VWS V14.01,2013-12-13 15:36:00,
2013-12-13 09:42:00,14.2,3.2,30.21,ENE,68,4.3,4.3,61,0.00,,,0.00,VWS V14.01,2013-12-13 15:42:00,
2013-12-13 09:47:00,14.4,3.7,30.21,East,90,3.1,3.1,62,0.00,,,0.00,VWS V14.01,2013-12-13 15:47:00,
2013-12-13 09:52:00,14.4,3.4,30.21,NNE,22,2.7,2.7,61,0.00,,,0.00,VWS V14.01,2013-12-13 15:52:00,
2013-12-13 09:57:00,14.4,3.4,30.21,East,90,3.4,4.7,61,0.00,,,0.00,VWS V14.01,2013-12-13 15:57:00,
2013-12-13 10:02:00,14.2,2.9,30.21,NNE,22,3.6,4.3,60,0.00,,,0.00,VWS V14.01,2013-12-13 16:02:00,
2013-12-13 10:07:00,14.4,3.0,30.21,ENE,68,3.1,5.4,60,0.00,,,0.00,VWS V14.01,2013-12-13 16:07:00,
2013-12-13 10:12:00,14.4,3.0,30.21,NE,45,4.0,7.6,60,0.00,,,0.00,VWS V14.01,2013-12-13 16:12:00,
2013-12-13 10:17:00,14.4,3.0,30.21,ENE,68,3.6,5.4,60,0.00,,,0.00,VWS V14.01,2013-12-13 16:17:00,
2013-12-13 10:22:00,14.5,3.2,30.21,ENE,68,4.0,6.0,60,0.00,,,0.00,VWS V14.01,2013-12-13 16:22:00,
2013-12-13 10:27:00,14.7,3.4,30.21,NE,45,4.3,4.5,60,0.00,,,0.00,VWS V14.01,2013-12-13 16:27:00,
2013-12-13 10:32:00,14.5,3.2,30.21,East,90,2.9,4.3,60,0.00,,,0.00,VWS V14.01,2013-12-13 16:32:00,
2013-12-13 10:37:00,14.7,3.4,30.21,North,0,0.0,0.0,60,0.00,,,0.00,VWS V14.01,2013-12-13 16:37:00,
2013-12-13 10:42:00,14.9,3.5,30.21,ENE,68,3.4,4.5,60,0.00,,,0.00,VWS V14.01,2013-12-13 16:42:00,
2013-12-13 10:47:00,14.9,3.5,30.18,ENE,68,3.1,3.1,60,0.00,,,0.00,VWS V14.01,2013-12-13 16:47:00,
2013-12-13 10:52:00,15.1,3.3,30.18,ENE,68,2.7,4.0,59,0.00,,,0.00,VWS V14.01,2013-12-13 16:52:00,
2013-12-13 10:57:00,15.1,3.3,30.18,ENE,68,4.3,5.8,59,0.00,,,0.00,VWS V14.01,2013-12-13 16:57:00,
2013-12-13 11:02:00,15.3,3.5,30.18,NE,45,3.8,4.9,59,0.00,,,0.00,VWS V14.01,2013-12-13 17:02:00,
2013-12-13 11:08:00,15.3,3.5,30.18,NE,45,3.1,3.4,59,0.00,,,0.00,VWS V14.01,2013-12-13 17:08:00,
2013-12-13 11:13:00,15.3,3.2,30.18,East,90,4.0,8.7,58,0.00,,,0.00,VWS V14.01,2013-12-13 17:13:00,
2013-12-13 11:18:00,15.3,3.2,30.15,ENE,68,4.5,6.0,58,0.00,,,0.00,VWS V14.01,2013-12-13 17:18:00,
2013-12-13 11:23:00,15.4,3.7,30.15,East,90,2.0,3.4,59,0.00,,,0.00,VWS V14.01,2013-12-13 17:23:00,
2013-12-13 11:28:00,16.0,3.8,30.15,North,0,4.9,5.8,58,0.00,,,0.00,VWS V14.01,2013-12-13 17:28:00,
2013-12-13 11:33:00,16.2,4.0,30.18,East,90,3.6,3.8,58,0.00,,,0.00,VWS V14.01,2013-12-13 17:33:00,
2013-12-13 11:38:00,16.2,3.6,30.18,East,90,5.6,5.6,57,0.00,,,0.00,VWS V14.01,2013-12-13 17:38:00,
2013-12-13 11:43:00,16.2,3.6,30.18,NE,45,3.1,4.7,57,0.00,,,0.00,VWS V14.01,2013-12-13 17:43:00,
2013-12-13 11:48:00,16.2,3.6,30.18,East,90,3.1,5.6,57,0.00,,,0.00,VWS V14.01,2013-12-13 17:48:00,
2013-12-13 11:53:00,16.2,3.6,30.18,NE,45,4.3,5.8,57,0.00,,,0.00,VWS V14.01,2013-12-13 17:53:00,
2013-12-13 11:58:00,16.3,3.8,30.18,NNW,338,2.7,4.3,57,0.00,,,0.00,VWS V14.01,2013-12-13 17:58:00,
2013-12-13 12:03:00,16.5,4.0,30.15,ENE,68,3.1,4.0,57,0.00,,,0.00,VWS V14.01,2013-12-13 18:03:00,
2013-12-13 12:08:00,16.7,4.1,30.15,ENE,68,1.1,4.0,57,0.00,,,0.00,VWS V14.01,2013-12-13 18:08:00,
2013-12-13 12:13:00,17.1,4.5,30.15,East,90,3.4,3.8,57,0.00,,,0.00,VWS V14.01,2013-12-13 18:13:00,
2013-12-13 12:18:00,17.4,4.4,30.18,ENE,68,3.8,4.9,56,0.00,,,0.00,VWS V14.01,2013-12-13 18:18:00,
2013-12-13 12:23:00,17.4,4.4,30.18,NE,45,3.8,6.0,56,0.00,,,0.00,VWS V14.01,2013-12-13 18:23:00,
2013-12-13 12:28:00,17.4,4.4,30.18,ENE,68,2.5,5.8,56,0.00,,,0.00,VWS V14.01,2013-12-13 18:28:00,
2013-12-13 12:34:00,17.8,4.4,30.18,NE,45,6.0,6.5,55,0.00,,,0.00,VWS V14.01,2013-12-13 18:34:00,
2013-12-13 12:44:00,17.6,4.6,30.18,North,0,2.0,5.4,56,0.00,,,0.00,VWS V14.01,2013-12-13 18:44:00,
2013-12-13 12:49:00,16.9,3.5,30.18,ENE,68,4.3,6.5,55,0.00,,,0.00,VWS V14.01,2013-12-13 18:49:00,
2013-12-13 12:54:00,17.1,3.7,30.18,East,90,4.0,7.6,55,0.00,,,0.00,VWS V14.01,2013-12-13 18:54:00,
2013-12-13 12:59:00,17.4,4.4,30.18,NNE,22,3.4,6.0,56,0.00,,,0.00,VWS V14.01,2013-12-13 18:59:00,
2013-12-13 13:04:00,17.4,4.4,30.15,NNE,22,3.6,7.2,56,0.00,,,0.00,VWS V14.01,2013-12-13 19:04:00,
2013-12-13 13:09:00,17.8,4.4,30.15,NNE,22,6.5,6.5,55,0.00,,,0.00,VWS V14.01,2013-12-13 19:09:00,
2013-12-13 13:14:00,17.8,4.4,30.15,NE,45,3.8,7.2,55,0.00,,,0.00,VWS V14.01,2013-12-13 19:14:00,
2013-12-13 13:19:00,18.0,4.5,30.18,ESE,112,2.5,4.0,55,0.00,,,0.00,VWS V14.01,2013-12-13 19:19:00,
2013-12-13 13:24:00,17.8,4.4,30.18,ENE,68,5.4,7.2,55,0.00,,,0.00,VWS V14.01,2013-12-13 19:24:00,
2013-12-13 13:29:00,17.6,4.2,30.18,NE,45,3.1,6.5,55,0.00,,,0.00,VWS V14.01,2013-12-13 19:29:00,
2013-12-13 13:34:00,17.6,4.2,30.18,NNE,22,5.6,5.6,55,0.00,,,0.00,VWS V14.01,2013-12-13 19:34:00,
2013-12-13 13:39:00,17.4,4.0,30.18,ESE,112,7.4,7.4,55,0.00,,,0.00,VWS V14.01,2013-12-13 19:39:00,
2013-12-13 13:44:00,17.4,4.0,30.18,NE,45,4.0,7.6,55,0.00,,,0.00,VWS V14.01,2013-12-13 19:44:00,
2013-12-13 13:49:00,17.4,4.0,30.18,ENE,68,5.4,7.6,55,0.00,,,0.00,VWS V14.01,2013-12-13 19:49:00,
2013-12-13 13:54:00,17.1,3.7,30.18,ENE,68,3.8,5.6,55,0.00,,,0.00,VWS V14.01,2013-12-13 19:54:00,
2013-12-13 14:00:00,17.1,3.7,30.18,NE,45,5.6,6.0,55,0.00,,,0.00,VWS V14.01,2013-12-13 20:00:00,
2013-12-13 14:05:00,17.1,3.7,30.18,ENE,68,4.0,6.0,55,0.00,,,0.00,VWS V14.01,2013-12-13 20:05:00,
2013-12-13 14:10:00,17.1,3.7,30.18,ENE,68,3.6,6.3,55,0.00,,,0.00,VWS V14.01,2013-12-13 20:10:00,
2013-12-13 14:15:00,16.9,3.5,30.18,NNE,22,3.8,6.3,55,0.00,,,0.00,VWS V14.01,2013-12-13 20:15:00,
2013-12-13 14:20:00,16.5,3.2,30.18,NNE,22,5.4,9.6,55,0.00,,,0.00,VWS V14.01,2013-12-13 20:20:00,
2013-12-13 14:25:00,16.5,3.2,30.18,NE,45,6.5,6.5,55,0.00,,,0.00,VWS V14.01,2013-12-13 20:25:00,
2013-12-13 14:30:00,16.2,2.8,30.18,ENE,68,7.2,8.1,55,0.00,,,0.00,VWS V14.01,2013-12-13 20:30:00,
2013-12-13 14:35:00,16.0,2.7,30.18,NE,45,3.6,5.8,55,0.00,,,0.00,VWS V14.01,2013-12-13 20:35:00,
2013-12-13 14:40:00,16.0,3.1,30.18,ENE,68,3.8,5.8,56,0.00,,,0.00,VWS V14.01,2013-12-13 20:40:00,
2013-12-13 14:45:00,15.8,2.9,30.18,ESE,112,2.0,6.3,56,0.00,,,0.00,VWS V14.01,2013-12-13 20:45:00,
2013-12-13 14:50:00,15.8,2.9,30.15,East,90,3.1,7.4,56,0.00,,,0.00,VWS V14.01,2013-12-13 20:50:00,
2013-12-13 14:55:00,15.6,2.7,30.15,ENE,68,3.6,6.3,56,0.00,,,0.00,VWS V14.01,2013-12-13 20:55:00,
2013-12-13 15:00:00,15.4,2.6,30.15,ENE,68,2.9,4.9,56,0.00,,,0.00,VWS V14.01,2013-12-13 21:00:00,
2013-12-13 15:05:00,15.4,2.9,30.18,NE,45,4.0,7.4,57,0.00,,,0.00,VWS V14.01,2013-12-13 21:05:00,
2013-12-13 15:10:00,15.4,2.9,30.18,East,90,2.9,6.3,57,0.00,,,0.00,VWS V14.01,2013-12-13 21:10:00,
2013-12-13 15:15:00,15.4,2.9,30.18,NE,45,3.6,8.7,57,0.00,,,0.00,VWS V14.01,2013-12-13 21:15:00,
2013-12-13 15:20:00,15.3,2.8,30.18,ENE,68,3.8,7.2,57,0.00,,,0.00,VWS V14.01,2013-12-13 21:20:00,
2013-12-13 15:26:00,15.1,2.6,30.18,NE,45,3.4,5.8,57,0.00,,,0.00,VWS V14.01,2013-12-13 21:26:00,
2013-12-13 15:31:00,15.1,2.6,30.18,NE,45,4.9,6.0,57,0.00,,,0.00,VWS V14.01,2013-12-13 21:31:00,
2013-12-13 15:36:00,15.1,2.6,30.18,East,90,3.8,6.0,57,0.00,,,0.00,VWS V14.01,2013-12-13 21:36:00,
2013-12-13 15:41:00,15.1,2.6,30.18,ENE,68,2.7,6.5,57,0.00,,,0.00,VWS V14.01,2013-12-13 21:41:00,
2013-12-13 15:46:00,15.1,3.0,30.18,NNE,22,3.4,3.4,58,0.00,,,0.00,VWS V14.01,2013-12-13 21:46:00,
2013-12-13 15:51:00,15.1,3.0,30.18,East,90,3.8,5.4,58,0.00,,,0.00,VWS V14.01,2013-12-13 21:51:00,
2013-12-13 15:56:00,14.9,2.8,30.18,ENE,68,3.1,5.8,58,0.00,,,0.00,VWS V14.01,2013-12-13 21:56:00,
2013-12-13 16:01:00,14.9,2.8,30.18,NE,45,3.1,5.4,58,0.00,,,0.00,VWS V14.01,2013-12-13 22:01:00,
2013-12-13 16:06:00,14.7,2.6,30.21,NE,45,4.3,5.8,58,0.00,,,0.00,VWS V14.01,2013-12-13 22:06:00,
2013-12-13 16:11:00,14.5,2.5,30.21,NE,45,4.3,5.4,58,0.00,,,0.00,VWS V14.01,2013-12-13 22:11:00,
2013-12-13 16:16:00,14.5,2.5,30.21,ENE,68,3.4,3.4,58,0.00,,,0.00,VWS V14.01,2013-12-13 22:16:00,
2013-12-13 16:21:00,14.4,2.3,30.21,ENE,68,4.9,4.9,58,0.00,,,0.00,VWS V14.01,2013-12-13 22:21:00,
2013-12-13 16:26:00,14.4,2.3,30.21,NNE,22,3.1,3.1,58,0.00,,,0.00,VWS V14.01,2013-12-13 22:26:00,
2013-12-13 16:31:00,14.2,2.1,30.24,ENE,68,6.9,7.4,58,0.00,,,0.00,VWS V14.01,2013-12-13 22:31:00,
2013-12-13 16:36:00,14.2,2.1,30.24,NE,45,2.5,4.7,58,0.00,,,0.00,VWS V14.01,2013-12-13 22:36:00,
2013-12-13 16:41:00,14.2,2.1,30.24,SE,135,3.4,6.5,58,0.00,,,0.00,VWS V14.01,2013-12-13 22:41:00,
2013-12-13 16:46:00,14.0,2.3,30.21,NE,45,5.6,5.6,59,0.00,,,0.00,VWS V14.01,2013-12-13 22:46:00,
2013-12-13 16:52:00,13.8,2.2,30.21,ENE,68,3.8,4.3,59,0.00,,,0.00,VWS V14.01,2013-12-13 22:52:00,
2013-12-13 16:57:00,13.8,2.2,30.21,ENE,68,2.7,3.8,59,0.00,,,0.00,VWS V14.01,2013-12-13 22:57:00,
2013-12-13 17:02:00,13.8,2.2,30.21,ENE,68,4.0,4.0,59,0.00,,,0.00,VWS V14.01,2013-12-13 23:02:00,
2013-12-13 17:07:00,13.8,2.2,30.21,ENE,68,4.9,4.9,59,0.00,,,0.00,VWS V14.01,2013-12-13 23:07:00,
2013-12-13 17:12:00,13.6,2.0,30.21,ENE,68,2.9,3.1,59,0.00,,,0.00,VWS V14.01,2013-12-13 23:12:00,
2013-12-13 17:17:00,13.6,2.0,30.21,East,90,2.9,4.3,59,0.00,,,0.00,VWS V14.01,2013-12-13 23:17:00,
2013-12-13 17:22:00,13.6,2.0,30.21,NNE,22,4.0,4.9,59,0.00,,,0.00,VWS V14.01,2013-12-13 23:22:00,
2013-12-13 17:27:00,13.5,1.8,30.21,ENE,68,3.4,3.4,59,0.00,,,0.00,VWS V14.01,2013-12-13 23:27:00,
2013-12-13 17:32:00,13.5,1.8,30.24,NE,45,3.8,6.7,59,0.00,,,0.00,VWS V14.01,2013-12-13 23:32:00,
2013-12-13 17:37:00,13.5,1.8,30.24,ENE,68,3.8,4.3,59,0.00,,,0.00,VWS V14.01,2013-12-13 23:37:00,
2013-12-13 17:42:00,13.3,1.6,30.24,NE,45,4.7,4.7,59,0.00,,,0.00,VWS V14.01,2013-12-13 23:42:00,
2013-12-13 17:47:00,13.3,1.6,30.24,East,90,4.3,4.3,59,0.00,,,0.00,VWS V14.01,2013-12-13 23:47:00,
2013-12-13 17:52:00,13.3,1.6,30.24,ENE,68,5.8,5.8,59,0.00,,,0.00,VWS V14.01,2013-12-13 23:52:00,
2013-12-13 17:57:00,13.3,1.6,30.24,NE,45,3.1,5.4,59,0.00,,,0.00,VWS V14.01,2013-12-13 23:57:00,
2013-12-13 18:02:00,13.3,1.6,30.24,ENE,68,4.0,5.8,59,0.00,,,0.00,VWS V14.01,2013-12-14 00:02:00,
2013-12-13 18:07:00,13.3,1.6,30.24,ENE,68,4.0,5.8,59,0.00,,,0.00,VWS V14.01,2013-12-14 00:07:00,
2013-12-13 18:12:00,13.3,1.6,30.24,East,90,6.5,6.5,59,0.00,,,0.00,VWS V14.01,2013-12-14 00:12:00,
2013-12-13 18:18:00,13.1,1.5,30.24,East,90,4.9,5.6,59,0.00,,,0.00,VWS V14.01,2013-12-14 00:18:00,
2013-12-13 18:23:00,13.1,1.5,30.24,ENE,68,5.6,5.8,59,0.00,,,0.00,VWS V14.01,2013-12-14 00:23:00,
2013-12-13 18:28:00,13.1,1.5,30.24,NE,45,4.9,6.0,59,0.00,,,0.00,VWS V14.01,2013-12-14 00:28:00,
2013-12-13 18:33:00,12.9,1.3,30.24,NNE,22,3.8,5.4,59,0.00,,,0.00,VWS V14.01,2013-12-14 00:33:00,
2013-12-13 18:38:00,12.9,1.3,30.24,NE,45,6.0,6.7,59,0.00,,,0.00,VWS V14.01,2013-12-14 00:38:00,
2013-12-13 18:43:00,12.9,1.3,30.24,NE,45,1.1,6.0,59,0.00,,,0.00,VWS V14.01,2013-12-14 00:43:00,
2013-12-13 18:48:00,12.9,1.3,30.24,ENE,68,3.6,5.6,59,0.00,,,0.00,VWS V14.01,2013-12-14 00:48:00,
2013-12-13 18:53:00,12.9,1.3,30.24,ENE,68,6.3,6.3,59,0.00,,,0.00,VWS V14.01,2013-12-14 00:53:00,
2013-12-13 18:58:00,12.9,1.3,30.24,ENE,68,2.7,6.0,59,0.00,,,0.00,VWS V14.01,2013-12-14 00:58:00,
2013-12-13 19:03:00,12.9,1.3,30.24,ENE,68,4.0,8.5,59,0.00,,,0.00,VWS V14.01,2013-12-14 01:03:00,
2013-12-13 19:08:00,12.7,1.1,30.24,ENE,68,3.1,3.6,59,0.00,,,0.00,VWS V14.01,2013-12-14 01:08:00,
2013-12-13 19:13:00,12.7,1.1,30.24,East,90,2.7,5.8,59,0.00,,,0.00,VWS V14.01,2013-12-14 01:13:00,
2013-12-13 19:14:00,12.7,1.1,30.24,NE,45,4.0,5.8,59,0.00,,,0.00,VWS V14.01,2013-12-14 01:14:00,
2013-12-13 19:20:00,12.7,1.1,30.21,ENE,68,2.0,7.8,59,0.00,,,0.00,VWS V14.01,2013-12-14 01:20:00,
2013-12-13 19:25:00,12.7,1.1,30.21,NE,45,2.2,7.2,59,0.00,,,0.00,VWS V14.01,2013-12-14 01:25:00,
2013-12-13 19:30:00,12.7,1.1,30.21,NE,45,4.0,5.6,59,0.00,,,0.00,VWS V14.01,2013-12-14 01:30:00,
2013-12-13 19:35:00,12.7,1.1,30.21,NE,45,4.0,6.0,59,0.00,,,0.00,VWS V14.01,2013-12-14 01:35:00,
2013-12-13 19:40:00,12.7,1.1,30.21,ENE,68,2.7,6.3,59,0.00,,,0.00,VWS V14.01,2013-12-14 01:40:00,
2013-12-13 19:45:00,12.7,1.1,30.21,NNE,22,3.8,4.3,59,0.00,,,0.00,VWS V14.01,2013-12-14 01:45:00,
2013-12-13 19:50:00,12.7,1.1,30.24,NNE,22,2.9,5.8,59,0.00,,,0.00,VWS V14.01,2013-12-14 01:50:00,
2013-12-13 19:55:00,12.7,1.1,30.24,ENE,68,2.9,7.2,59,0.00,,,0.00,VWS V14.01,2013-12-14 01:55:00,
2013-12-13 20:00:00,12.7,1.1,30.24,ENE,68,3.6,5.4,59,0.00,,,0.00,VWS V14.01,2013-12-14 02:00:00,
2013-12-13 20:05:00,12.7,1.1,30.24,ENE,68,3.8,9.2,59,0.00,,,0.00,VWS V14.01,2013-12-14 02:05:00,
2013-12-13 20:10:00,12.7,1.1,30.24,NE,45,2.5,8.1,59,0.00,,,0.00,VWS V14.01,2013-12-14 02:10:00,
2013-12-13 20:15:00,12.7,1.1,30.24,ENE,68,2.9,4.3,59,0.00,,,0.00,VWS V14.01,2013-12-14 02:15:00,
2013-12-13 20:20:00,12.7,1.1,30.24,ENE,68,2.9,4.3,59,0.00,,,0.00,VWS V14.01,2013-12-14 02:20:00,
2013-12-13 20:25:00,12.7,1.1,30.24,ENE,68,3.6,6.5,59,0.00,,,0.00,VWS V14.01,2013-12-14 02:25:00,
2013-12-13 20:30:00,12.6,1.0,30.24,NE,45,4.3,6.3,59,0.00,,,0.00,VWS V14.01,2013-12-14 02:30:00,
2013-12-13 20:36:00,12.6,1.0,30.24,ENE,68,2.0,4.9,59,0.00,,,0.00,VWS V14.01,2013-12-14 02:36:00,
2013-12-13 20:41:00,12.4,0.8,30.24,NE,45,6.5,7.2,59,0.00,,,0.00,VWS V14.01,2013-12-14 02:41:00,
2013-12-13 20:46:00,12.2,0.6,30.24,East,90,4.3,5.6,59,0.00,,,0.00,VWS V14.01,2013-12-14 02:46:00,
2013-12-13 20:51:00,12.2,0.6,30.24,ESE,112,4.3,5.8,59,0.00,,,0.00,VWS V14.01,2013-12-14 02:51:00,
2013-12-13 20:56:00,12.2,0.6,30.24,East,90,3.1,9.6,59,0.00,,,0.00,VWS V14.01,2013-12-14 02:56:00,
2013-12-13 21:01:00,12.2,0.6,30.24,East,90,5.4,5.4,59,0.00,,,0.00,VWS V14.01,2013-12-14 03:01:00,
2013-12-13 21:06:00,12.0,0.4,30.24,NE,45,5.6,5.6,59,0.00,,,0.00,VWS V14.01,2013-12-14 03:06:00,
2013-12-13 21:11:00,12.0,0.4,30.24,NE,45,2.9,6.0,59,0.00,,,0.00,VWS V14.01,2013-12-14 03:11:00,
2013-12-13 21:16:00,12.0,0.4,30.24,NE,45,3.1,5.6,59,0.00,,,0.00,VWS V14.01,2013-12-14 03:16:00,
2013-12-13 21:21:00,12.0,0.4,30.24,ENE,68,2.0,4.7,59,0.00,,,0.00,VWS V14.01,2013-12-14 03:21:00,
2013-12-13 21:26:00,11.8,0.3,30.24,ENE,68,4.3,4.3,59,0.00,,,0.00,VWS V14.01,2013-12-14 03:26:00,
2013-12-13 21:31:00,11.8,0.3,30.24,East,90,2.7,2.7,59,0.00,,,0.00,VWS V14.01,2013-12-14 03:31:00,
2013-12-13 21:36:00,11.8,0.3,30.24,ENE,68,2.5,6.0,59,0.00,,,0.00,VWS V14.01,2013-12-14 03:36:00,
2013-12-13 21:41:00,11.8,0.3,30.24,NNE,22,2.5,6.5,59,0.00,,,0.00,VWS V14.01,2013-12-14 03:41:00,
2013-12-13 21:46:00,11.8,0.3,30.24,NE,45,2.5,4.9,59,0.00,,,0.00,VWS V14.01,2013-12-14 03:46:00,
2013-12-13 21:51:00,11.8,0.3,30.21,ENE,68,2.0,2.0,59,0.00,,,0.00,VWS V14.01,2013-12-14 03:51:00,
2013-12-13 21:56:00,11.8,0.3,30.21,ENE,68,2.0,6.3,59,0.00,,,0.00,VWS V14.01,2013-12-14 03:56:00,
2013-12-13 22:01:00,11.8,0.3,30.24,ESE,112,4.0,4.0,59,0.00,,,0.00,VWS V14.01,2013-12-14 04:01:00,
2013-12-13 22:06:00,11.8,0.3,30.24,NNE,22,1.6,1.6,59,0.00,,,0.00,VWS V14.01,2013-12-14 04:06:00,
2013-12-13 22:11:00,11.8,0.3,30.24,East,90,3.4,3.4,59,0.00,,,0.00,VWS V14.01,2013-12-14 04:11:00,
2013-12-13 22:16:00,11.8,0.3,30.24,East,90,4.0,4.0,59,0.00,,,0.00,VWS V14.01,2013-12-14 04:16:00,
2013-12-13 22:21:00,11.8,0.3,30.24,NNE,22,3.8,3.8,59,0.00,,,0.00,VWS V14.01,2013-12-14 04:21:00,
2013-12-13 22:26:00,11.8,0.3,30.24,East,90,2.7,2.9,59,0.00,,,0.00,VWS V14.01,2013-12-14 04:26:00,
2013-12-13 22:31:00,11.8,0.3,30.24,ENE,68,3.1,5.4,59,0.00,,,0.00,VWS V14.01,2013-12-14 04:31:00,
2013-12-13 22:36:00,11.7,0.1,30.24,NE,45,4.0,4.0,59,0.00,,,0.00,VWS V14.01,2013-12-14 04:36:00,
2013-12-13 22:41:00,11.7,0.1,30.24,NE,45,4.0,8.5,59,0.00,,,0.00,VWS V14.01,2013-12-14 04:41:00,
2013-12-13 22:47:00,11.7,0.1,30.24,ENE,68,3.8,4.0,59,0.00,,,0.00,VWS V14.01,2013-12-14 04:47:00,
2013-12-13 22:52:00,11.7,0.1,30.24,ESE,112,4.3,4.7,59,0.00,,,0.00,VWS V14.01,2013-12-14 04:52:00,
2013-12-13 22:57:00,11.7,0.1,30.24,NE,45,2.0,2.7,59,0.00,,,0.00,VWS V14.01,2013-12-14 04:57:00,
2013-12-13 23:01:00,11.7,0.1,30.24,NNE,22,2.5,3.1,59,0.00,,,0.00,VWS V14.01,2013-12-14 05:01:00,
2013-12-13 23:03:00,11.7,0.1,30.24,ENE,68,2.0,3.1,59,0.00,,,0.00,VWS V14.01,2013-12-14 05:03:00,
2013-12-13 23:09:00,11.7,0.1,30.24,ENE,68,2.5,3.8,59,0.00,,,0.00,VWS V14.01,2013-12-14 05:09:00,
2013-12-13 23:10:00,11.7,0.1,30.24,ESE,112,5.6,5.6,59,0.00,,,0.00,VWS V14.01,2013-12-14 05:10:00,
2013-12-13 23:15:00,11.5,-0.1,30.24,ENE,68,2.5,4.0,59,0.00,,,0.00,VWS V14.01,2013-12-14 05:15:00,
2013-12-13 23:20:00,11.5,-0.1,30.24,NE,45,1.3,4.3,59,0.00,,,0.00,VWS V14.01,2013-12-14 05:20:00,
2013-12-13 23:25:00,11.3,-0.2,30.24,NNE,22,2.7,4.0,59,0.00,,,0.00,VWS V14.01,2013-12-14 05:25:00,
2013-12-13 23:30:00,11.1,-0.4,30.24,East,90,2.7,4.0,59,0.00,,,0.00,VWS V14.01,2013-12-14 05:30:00,
2013-12-13 23:35:00,11.1,-0.4,30.24,ENE,68,3.1,3.4,59,0.00,,,0.00,VWS V14.01,2013-12-14 05:35:00,
2013-12-13 23:40:00,10.9,-0.6,30.24,ENE,68,2.9,4.0,59,0.00,,,0.00,VWS V14.01,2013-12-14 05:40:00,
2013-12-13 23:45:00,10.9,-0.6,30.24,ENE,68,1.3,4.0,59,0.00,,,0.00,VWS V14.01,2013-12-14 05:45:00,
2013-12-13 23:50:00,10.9,-0.6,30.24,ENE,68,1.3,4.3,59,0.00,,,0.00,VWS V14.01,2013-12-14 05:50:00,
2013-12-13 23:56:00,10.8,-0.7,30.24,ENE,68,2.9,2.9,59,0.00,,,0.00,VWS V14.01,2013-12-14 05:56:00,